Time;durP1;ratioP1;P1;durP2;ratioP2;P2;SDS_P1;SDS_P2;PMS_P1;PMS_P2;Temp;Humidity;BMP_temperature;BMP_pressure;BME280_temperature;BME280_humidity;BME280_pressure;Samples;Min_cycle;Max_cycle;Signal;HPM_P1;HPM_P2
2022/12/01 00:01:00;;;;;;;54.17;20.13;;;6.30;99.90;;;;;;5032536;28;20046;-87
2022/12/01 00:03:31;;;;;;;56.25;19.35;;;6.30;99.90;;;;;;5020182;28;20560;-88
2022/12/01 00:06:02;;;;;;;57.00;20.50;;;6.40;99.90;;;;;;5027165;28;20077;-88
2022/12/01 00:08:28;;;;;;;53.63;18.88;;;6.30;99.90;;;;;;5030140;28;20041;-88
2022/12/01 00:11:09;;;;;;;54.55;20.00;;;6.30;99.90;;;;;;5030182;28;20131;-89
2022/12/01 00:13:35;;;;;;;52.80;19.02;;;6.30;99.90;;;;;;5024970;28;20042;-88
2022/12/01 00:16:15;;;;;;;45.92;17.75;;;6.30;99.90;;;;;;5027393;28;20097;-88
2022/12/01 00:18:41;;;;;;;57.38;21.10;;;6.30;99.90;;;;;;5020390;28;20051;-88
2022/12/01 00:21:13;;;;;;;52.80;20.38;;;6.30;99.90;;;;;;5033964;28;20037;-87
2022/12/01 00:23:47;;;;;;;56.72;19.20;;;6.30;99.90;;;;;;5015625;28;20549;-88
2022/12/01 00:26:13;;;;;;;60.33;19.80;;;6.10;99.90;;;;;;5025685;28;20068;-88
2022/12/01 00:28:39;;;;;;;57.70;21.25;;;6.10;99.90;;;;;;5032904;28;20064;-88
2022/12/01 00:31:09;;;;;;;53.77;19.23;;;6.20;99.90;;;;;;5020800;28;20108;-88
2022/12/01 00:33:35;;;;;;;62.42;20.65;;;6.20;99.90;;;;;;5020014;28;20063;-88
2022/12/01 00:36:02;;;;;;;59.15;21.27;;;6.20;99.90;;;;;;5030798;28;20060;-88
2022/12/01 00:38:32;;;;;;;56.03;19.98;;;6.20;99.90;;;;;;5028918;28;20103;-88
2022/12/01 00:41:04;;;;;;;54.92;19.52;;;6.20;99.90;;;;;;5012947;28;20056;-88
2022/12/01 00:43:30;;;;;;;54.83;21.15;;;6.20;99.90;;;;;;5025885;28;20041;-89
2022/12/01 00:45:56;;;;;;;57.35;19.63;;;6.20;99.90;;;;;;5023906;28;20089;-88
2022/12/01 00:48:22;;;;;;;56.60;20.73;;;6.30;99.90;;;;;;5026652;28;20046;-87
2022/12/01 00:50:51;;;;;;;61.53;20.88;;;6.20;99.90;;;;;;5034751;28;20049;-88
2022/12/01 00:53:17;;;;;;;64.15;20.15;;;6.20;99.90;;;;;;5009822;28;20192;-88
2022/12/01 00:55:43;;;;;;;53.92;19.15;;;6.20;99.90;;;;;;5011229;28;20141;-88
2022/12/01 00:58:08;;;;;;;46.30;18.03;;;6.20;99.90;;;;;;5030728;28;20421;-88
2022/12/01 01:00:39;;;;;;;49.73;18.27;;;6.20;99.90;;;;;;5010873;28;20052;-88
2022/12/01 01:03:08;;;;;;;49.35;18.50;;;6.20;99.90;;;;;;5025043;28;20091;-87
2022/12/01 01:05:35;;;;;;;57.38;20.63;;;6.20;99.90;;;;;;5022935;28;20033;-88
2022/12/01 01:08:04;;;;;;;55.35;19.17;;;6.20;99.90;;;;;;5026901;28;20424;-87
2022/12/01 01:10:30;;;;;;;49.63;18.75;;;6.20;99.90;;;;;;5030458;28;20405;-88
2022/12/01 01:12:56;;;;;;;63.27;21.30;;;6.20;99.90;;;;;;5023808;28;20033;-88
2022/12/01 01:15:21;;;;;;;50.40;19.80;;;6.20;99.90;;;;;;5033145;28;20033;-88
2022/12/01 01:17:47;;;;;;;50.17;19.37;;;6.20;99.90;;;;;;5025349;28;20045;-87
2022/12/01 01:20:14;;;;;;;45.63;18.85;;;6.20;99.90;;;;;;5031459;28;20045;-87
2022/12/01 01:22:39;;;;;;;53.90;20.73;;;6.20;99.90;;;;;;5031108;28;20048;-88
2022/12/01 01:25:05;;;;;;;53.03;19.63;;;6.20;99.90;;;;;;5011584;28;20041;-87
2022/12/01 01:27:33;;;;;;;49.60;20.02;;;6.20;99.90;;;;;;5032865;28;20516;-87
2022/12/01 01:29:59;;;;;;;51.15;18.33;;;6.20;99.90;;;;;;5045473;28;20049;-87
2022/12/01 01:32:24;;;;;;;58.43;19.83;;;6.20;99.90;;;;;;5030844;28;20041;-87
2022/12/01 01:34:50;;;;;;;54.77;18.80;;;6.20;99.90;;;;;;5026054;28;20049;-87
2022/12/01 01:37:16;;;;;;;52.70;18.73;;;6.20;99.90;;;;;;5029959;28;20121;-87
2022/12/01 01:39:41;;;;;;;46.60;19.13;;;6.20;99.90;;;;;;5027740;28;20040;-87
2022/12/01 01:42:12;;;;;;;54.13;19.60;;;6.10;99.90;;;;;;5029030;28;20048;-88
2022/12/01 01:44:48;;;;;;;56.38;19.98;;;6.20;99.90;;;;;;5020566;28;20080;-87
2022/12/01 01:47:16;;;;;;;48.05;18.65;;;6.20;99.90;;;;;;5030169;28;20045;-88
2022/12/01 01:49:42;;;;;;;51.45;18.30;;;6.20;99.90;;;;;;5012799;28;20408;-87
2022/12/01 01:52:08;;;;;;;53.10;19.25;;;6.20;99.90;;;;;;5019573;28;20516;-87
2022/12/01 01:54:42;;;;;;;55.53;20.40;;;6.10;99.90;;;;;;5028732;28;20501;-88
2022/12/01 01:57:10;;;;;;;48.55;18.38;;;6.20;99.90;;;;;;5026438;28;20140;-87
2022/12/01 02:00:09;;;;;;;58.22;18.67;;;6.10;99.90;;;;;;5028366;28;20056;-88
2022/12/01 02:02:39;;;;;;;62.80;19.73;;;6.10;99.90;;;;;;5023686;28;20167;-88
2022/12/01 02:05:10;;;;;;;51.10;20.50;;;6.10;99.90;;;;;;5015006;28;20037;-88
2022/12/01 02:07:40;;;;;;;51.88;19.88;;;6.10;99.90;;;;;;5020892;28;20051;-88
2022/12/01 02:10:12;;;;;;;52.22;18.80;;;6.10;99.90;;;;;;5021709;28;20053;-87
2022/12/01 02:13:02;;;;;;;57.90;20.52;;;6.10;99.90;;;;;;5022219;28;20588;-87
2022/12/01 02:15:41;;;;;;;56.05;18.75;;;6.10;99.90;;;;;;5026368;28;20037;-89
2022/12/01 02:18:21;;;;;;;51.08;19.08;;;6.10;99.90;;;;;;5041189;28;20112;-89
2022/12/01 02:21:15;;;;;;;59.05;19.50;;;6.10;99.90;;;;;;5017373;28;20037;-88
2022/12/01 02:23:52;;;;;;;53.55;19.73;;;6.10;99.90;;;;;;5029718;28;20063;-88
2022/12/01 02:26:56;;;;;;;47.42;20.27;;;6.10;99.90;;;;;;5043265;28;20038;-87
2022/12/01 02:30:03;;;;;;;50.58;18.92;;;6.10;99.90;;;;;;4967275;28;20442;-86
2022/12/01 02:32:43;;;;;;;60.15;19.17;;;6.10;99.90;;;;;;4895008;29;20051;-87
2022/12/01 02:35:21;;;;;;;52.95;19.38;;;6.10;99.90;;;;;;4918254;29;20194;-86
2022/12/01 02:38:19;;;;;;;58.10;20.25;;;6.10;99.90;;;;;;4986417;28;20432;-87
2022/12/01 02:40:48;;;;;;;;;;;6.10;99.90;;;;;;5022743;28;20138;-86
2022/12/01 02:43:37;;;;;;;63.47;19.88;;;6.10;99.90;;;;;;5022834;28;20536;-86
2022/12/01 02:46:12;;;;;;;54.42;19.30;;;6.10;99.90;;;;;;5021468;28;20062;-86
2022/12/01 02:48:41;;;;;;;53.55;19.50;;;6.10;99.90;;;;;;5028755;28;20053;-87
2022/12/01 02:51:13;;;;;;;52.30;19.42;;;6.10;99.90;;;;;;5006816;28;20072;-87
2022/12/01 02:53:38;;;;;;;56.63;20.02;;;6.10;99.90;;;;;;5012095;28;20041;-86
2022/12/01 02:56:12;;;;;;;56.70;20.07;;;6.10;99.90;;;;;;5012352;28;20110;-86
2022/12/01 02:58:38;;;;;;;55.40;19.67;;;6.10;99.90;;;;;;5031167;28;20041;-87
2022/12/01 03:01:29;;;;;;;51.53;19.43;;;6.10;99.90;;;;;;5021301;28;20048;-87
2022/12/01 03:04:08;;;;;;;59.70;19.02;;;6.10;99.90;;;;;;5023940;28;20076;-86
2022/12/01 03:07:02;;;;;;;53.90;20.38;;;6.10;99.90;;;;;;5027350;28;20421;-86
2022/12/01 03:09:47;;;;;;;53.85;19.95;;;6.10;99.90;;;;;;5019674;28;20441;-86
2022/12/01 03:12:37;;;;;;;54.90;19.60;;;6.10;99.90;;;;;;5024718;28;20480;-86
2022/12/01 03:15:25;;;;;;;55.88;20.05;;;6.10;99.90;;;;;;5026572;28;20557;-87
2022/12/01 03:18:06;;;;;;;51.03;19.60;;;6.10;99.90;;;;;;5028727;28;20045;-86
2022/12/01 03:20:41;;;;;;;61.20;19.63;;;6.10;99.90;;;;;;5027198;28;20073;-86
2022/12/01 03:23:11;;;;;;;47.33;17.92;;;6.00;99.90;;;;;;5044727;28;20037;-87
2022/12/01 03:25:40;;;;;;;59.35;19.25;;;6.10;99.90;;;;;;5041821;28;20065;-86
2022/12/01 03:28:10;;;;;;;52.10;19.33;;;6.00;99.90;;;;;;5043070;28;20038;-87
2022/12/01 03:30:36;;;;;;;61.83;20.77;;;6.00;99.90;;;;;;5039584;28;20033;-86
2022/12/01 03:33:08;;;;;;;54.50;21.88;;;6.00;99.90;;;;;;5025807;28;20041;-86
2022/12/01 03:35:43;;;;;;;46.80;19.55;;;6.00;99.90;;;;;;5021617;28;20045;-86
2022/12/01 03:38:15;;;;;;;53.65;18.17;;;6.00;99.90;;;;;;5027167;28;20111;-87
2022/12/01 03:40:42;;;;;;;61.83;20.42;;;6.00;99.90;;;;;;5009729;28;20072;-86
2022/12/01 03:43:12;;;;;;;56.92;21.80;;;6.00;99.90;;;;;;5031040;28;20045;-86
2022/12/01 03:46:03;;;;;;;49.00;18.90;;;6.00;99.90;;;;;;5037664;28;20037;-86
2022/12/01 03:48:30;;;;;;;54.63;19.60;;;6.00;99.90;;;;;;5030661;28;20414;-87
2022/12/01 03:51:10;;;;;;;55.20;20.98;;;6.00;99.90;;;;;;5011807;28;20033;-87
2022/12/01 03:54:11;;;;;;;48.60;18.08;;;6.00;99.90;;;;;;5031362;28;20033;-86
2022/12/01 03:56:46;;;;;;;51.42;20.55;;;5.90;99.90;;;;;;5028143;28;20413;-86
2022/12/01 03:59:13;;;;;;;50.40;18.85;;;5.90;99.90;;;;;;5033200;28;20033;-86
2022/12/01 04:01:39;;;;;;;56.25;19.25;;;5.90;99.90;;;;;;5029981;28;20080;-86
2022/12/01 04:04:07;;;;;;;63.07;21.77;;;5.90;99.90;;;;;;5046956;28;20038;-87
2022/12/01 04:06:34;;;;;;;55.40;19.98;;;5.90;99.90;;;;;;5030333;28;20628;-86
2022/12/01 04:08:59;;;;;;;52.67;18.73;;;5.90;99.90;;;;;;5025886;28;20049;-86
2022/12/01 04:14:10;;;;;;;45.85;18.40;;;5.80;99.90;;;;;;5032540;28;20060;-86
2022/12/01 04:16:35;;;;;;;57.75;19.40;;;5.90;99.90;;;;;;5022090;28;20489;-86
2022/12/01 04:19:01;;;;;;;50.47;18.60;;;5.80;99.90;;;;;;5025478;28;20038;-87
2022/12/01 04:21:26;;;;;;;55.20;19.87;;;5.90;99.90;;;;;;5036643;28;20045;-87
2022/12/01 04:24:01;;;;;;;48.50;17.80;;;5.90;99.90;;;;;;5027788;28;20132;-86
2022/12/01 04:26:32;;;;;;;48.25;20.02;;;5.90;99.90;;;;;;5030231;28;20053;-87
2022/12/01 04:29:04;;;;;;;58.25;21.33;;;5.90;99.90;;;;;;5034847;28;20044;-86
2022/12/01 04:31:30;;;;;;;58.58;21.35;;;5.90;99.90;;;;;;5036334;28;20056;-86
2022/12/01 04:34:00;;;;;;;51.07;18.50;;;5.90;99.90;;;;;;5030714;28;20067;-87
2022/12/01 04:36:28;;;;;;;51.10;18.98;;;5.90;99.90;;;;;;5039057;28;20037;-86
2022/12/01 04:38:54;;;;;;;58.42;19.35;;;5.90;99.90;;;;;;5027137;28;20534;-87
2022/12/01 04:41:22;;;;;;;48.40;21.10;;;6.00;99.90;;;;;;5035644;28;20033;-87
2022/12/01 04:43:48;;;;;;;54.08;18.45;;;5.90;99.90;;;;;;5034591;28;20133;-87
2022/12/01 04:46:14;;;;;;;59.43;20.97;;;6.00;99.90;;;;;;5015968;28;20080;-88
2022/12/01 04:48:40;;;;;;;57.13;18.63;;;5.90;99.90;;;;;;5030128;28;20042;-87
2022/12/01 04:51:07;;;;;;;53.90;20.53;;;6.00;99.90;;;;;;5012101;28;20091;-87
2022/12/01 04:53:34;;;;;;;59.67;20.17;;;6.00;99.90;;;;;;5032701;28;20803;-87
2022/12/01 04:56:00;;;;;;;55.08;20.63;;;6.00;99.90;;;;;;5012254;28;20037;-87
2022/12/01 04:58:26;;;;;;;53.40;19.93;;;5.90;99.90;;;;;;5030133;28;20111;-87
2022/12/01 05:00:52;;;;;;;52.97;19.77;;;6.00;99.90;;;;;;5035626;28;20101;-88
2022/12/01 05:03:21;;;;;;;51.33;19.70;;;6.00;99.90;;;;;;5027793;28;20069;-87
2022/12/01 05:05:46;;;;;;;52.10;18.50;;;6.00;99.90;;;;;;5029342;28;20452;-88
2022/12/01 05:08:12;;;;;;;56.17;20.50;;;6.00;99.90;;;;;;5024350;28;20045;-87
2022/12/01 05:10:38;;;;;;;61.23;20.00;;;6.00;99.90;;;;;;5034055;28;20040;-87
2022/12/01 05:13:04;;;;;;;52.67;18.05;;;5.90;99.90;;;;;;5016723;28;20033;-87
2022/12/01 05:15:30;;;;;;;55.15;20.75;;;6.00;99.90;;;;;;5013101;28;20427;-88
2022/12/01 05:17:56;;;;;;;55.15;19.83;;;5.90;99.90;;;;;;5015248;28;20045;-87
2022/12/01 05:23:12;;;;;;;56.45;20.92;;;6.00;99.90;;;;;;5028704;28;20048;-87
2022/12/01 05:25:41;;;;;;;60.27;19.87;;;5.90;99.90;;;;;;5030278;28;20120;-87
2022/12/01 05:28:07;;;;;;;54.70;20.95;;;6.00;99.90;;;;;;5034158;28;20095;-87
2022/12/01 05:30:35;;;;;;;54.53;19.77;;;6.00;99.90;;;;;;5013244;28;20029;-87
2022/12/01 05:33:04;;;;;;;53.17;19.40;;;6.00;99.90;;;;;;5010109;28;20057;-87
2022/12/01 05:35:31;;;;;;;57.00;20.80;;;6.00;99.90;;;;;;5010033;28;20041;-87
2022/12/01 05:37:57;;;;;;;59.63;19.98;;;6.00;99.90;;;;;;5026224;28;20061;-87
2022/12/01 05:40:37;;;;;;;55.53;20.00;;;6.00;99.90;;;;;;5032542;28;20053;-87
2022/12/01 05:43:06;;;;;;;52.90;19.70;;;5.90;99.90;;;;;;5016390;28;20033;-88
2022/12/01 05:45:35;;;;;;;57.22;20.38;;;5.90;99.90;;;;;;5024074;28;20037;-87
2022/12/01 05:48:01;;;;;;;55.35;19.17;;;5.90;99.90;;;;;;5022211;28;20091;-87
2022/12/01 05:50:31;;;;;;;54.45;19.27;;;5.90;99.90;;;;;;5047899;28;20117;-87
2022/12/01 05:52:56;;;;;;;56.08;19.38;;;5.90;99.90;;;;;;5005807;28;20169;-87
2022/12/01 05:55:34;;;;;;;61.13;22.10;;;6.00;99.90;;;;;;5032054;28;20178;-87
2022/12/01 05:58:03;;;;;;;63.38;22.73;;;6.00;99.90;;;;;;5005271;28;20053;-87
2022/12/01 06:00:29;;;;;;;54.40;20.67;;;6.00;99.90;;;;;;5008804;28;20465;-87
2022/12/01 06:02:55;;;;;;;58.17;20.00;;;5.90;99.90;;;;;;5007728;28;20041;-87
2022/12/01 06:05:27;;;;;;;54.27;20.33;;;5.90;99.90;;;;;;5029394;28;20604;-87
2022/12/01 06:07:54;;;;;;;62.80;21.98;;;6.00;99.90;;;;;;5020583;28;20072;-87
2022/12/01 06:10:23;;;;;;;56.33;19.63;;;6.00;99.90;;;;;;5026506;28;20410;-87
2022/12/01 06:12:49;;;;;;;62.45;20.63;;;6.00;99.90;;;;;;5029256;28;20582;-87
2022/12/01 06:15:18;;;;;;;52.90;20.60;;;6.10;99.90;;;;;;5030408;28;20140;-87
2022/12/01 06:17:47;;;;;;;53.20;20.35;;;5.90;99.90;;;;;;5029085;28;20038;-87
2022/12/01 06:20:12;;;;;;;59.47;20.02;;;6.00;99.90;;;;;;5024758;28;20138;-88
2022/12/01 06:22:38;;;;;;;66.22;22.55;;;5.90;99.90;;;;;;5013714;28;20135;-88
2022/12/01 06:25:04;;;;;;;53.87;20.77;;;5.90;99.90;;;;;;5025252;28;20533;-88
2022/12/01 06:27:36;;;;;;;58.50;22.02;;;5.90;99.90;;;;;;5026349;28;20052;-88
2022/12/01 06:30:11;;;;;;;56.88;19.73;;;6.00;99.90;;;;;;5023491;28;20552;-87
2022/12/01 06:32:37;;;;;;;59.28;20.60;;;6.00;99.90;;;;;;5024515;28;20044;-87
2022/12/01 06:35:03;;;;;;;57.75;19.95;;;6.00;99.90;;;;;;5024814;28;20030;-88
2022/12/01 06:37:31;;;;;;;56.60;19.53;;;5.90;99.90;;;;;;5022490;28;20053;-89
2022/12/01 06:39:57;;;;;;;55.33;20.27;;;5.80;99.90;;;;;;5023822;28;20289;-87
2022/12/01 06:42:32;;;;;;;63.50;21.33;;;5.80;99.90;;;;;;5026393;28;20037;-87
2022/12/01 06:45:04;;;;;;;66.60;22.30;;;5.80;99.90;;;;;;5032897;28;20142;-88
2022/12/01 06:47:30;;;;;;;88.03;31.60;;;5.70;99.90;;;;;;5006214;28;20550;-86
2022/12/01 06:49:56;;;;;;;105.17;38.17;;;5.60;99.90;;;;;;5028612;28;20092;-87
2022/12/01 06:52:31;;;;;;;;;;;5.50;99.90;;;;;;5026942;28;20097;-86
2022/12/01 06:55:00;;;;;;;80.28;28.23;;;5.50;99.90;;;;;;5035872;28;19921;-86
2022/12/01 06:57:26;;;;;;;73.30;27.58;;;5.40;99.90;;;;;;5031071;28;20665;-86
2022/12/01 06:59:51;;;;;;;56.67;23.80;;;5.30;99.90;;;;;;5024115;28;20124;-86
2022/12/01 07:02:17;;;;;;;65.23;24.97;;;5.30;99.90;;;;;;5028709;28;20041;-86
2022/12/01 07:04:43;;;;;;;62.40;20.77;;;5.30;99.90;;;;;;5012036;28;20045;-87
2022/12/01 07:07:10;;;;;;;57.50;22.23;;;5.20;99.90;;;;;;5018556;28;20076;-87
2022/12/01 07:09:35;;;;;;;55.63;21.13;;;5.20;99.90;;;;;;5009861;28;20044;-86
2022/12/01 07:12:01;;;;;;;55.83;21.93;;;5.10;99.90;;;;;;5010545;28;20034;-86
2022/12/01 07:14:30;;;;;;;58.20;21.37;;;5.10;99.90;;;;;;5000255;28;20037;-86
2022/12/01 07:17:04;;;;;;;53.00;19.52;;;5.00;99.90;;;;;;5007587;28;20037;-87
2022/12/01 07:19:30;;;;;;;57.92;21.75;;;5.00;99.90;;;;;;5006108;28;20060;-86
2022/12/01 07:21:56;;;;;;;57.80;20.48;;;5.00;99.90;;;;;;5016171;28;20045;-86
2022/12/01 07:24:24;;;;;;;52.58;18.85;;;4.90;99.90;;;;;;5011349;28;20051;-86
2022/12/01 07:26:50;;;;;;;54.20;21.38;;;4.90;99.90;;;;;;5025916;28;20061;-87
2022/12/01 07:29:19;;;;;;;50.87;19.87;;;4.80;99.90;;;;;;5027943;28;20406;-87
2022/12/01 07:31:50;;;;;;;54.28;20.08;;;4.90;99.90;;;;;;5027055;28;20505;-88
2022/12/01 07:34:25;;;;;;;58.67;20.77;;;4.90;99.90;;;;;;5029823;28;20033;-87
2022/12/01 07:36:51;;;;;;;54.88;20.42;;;4.90;99.90;;;;;;5025515;28;20033;-87
2022/12/01 07:39:17;;;;;;;59.93;20.60;;;4.90;99.90;;;;;;5025285;28;20092;-87
2022/12/01 07:41:42;;;;;;;50.33;19.43;;;4.90;99.90;;;;;;5006554;28;20745;-87
2022/12/01 07:44:12;;;;;;;55.87;20.80;;;4.90;99.90;;;;;;5007622;28;20040;-86
2022/12/01 07:46:41;;;;;;;50.53;18.33;;;4.90;99.90;;;;;;5017145;28;20440;-87
2022/12/01 07:49:09;;;;;;;50.70;18.75;;;5.00;99.90;;;;;;5017425;28;20130;-86
2022/12/01 07:51:40;;;;;;;51.55;19.67;;;4.90;99.90;;;;;;5025947;28;20536;-86
2022/12/01 07:54:13;;;;;;;51.70;19.25;;;4.90;99.90;;;;;;5009238;28;20034;-86
2022/12/01 07:56:39;;;;;;;49.30;18.48;;;4.80;99.90;;;;;;5020324;28;20410;-86
2022/12/01 07:59:08;;;;;;;55.15;18.70;;;4.80;99.90;;;;;;5019001;28;20029;-86
2022/12/01 08:01:33;;;;;;;53.35;19.38;;;4.90;99.90;;;;;;5022442;28;20046;-87
2022/12/01 08:04:03;;;;;;;45.67;18.27;;;4.80;99.90;;;;;;5033569;28;20040;-86
2022/12/01 08:06:29;;;;;;;45.95;18.50;;;4.80;99.90;;;;;;5017421;28;20057;-86
2022/12/01 08:08:55;;;;;;;51.08;18.25;;;4.90;99.90;;;;;;5012008;28;20080;-86
2022/12/01 08:11:28;;;;;;;52.17;17.48;;;4.80;99.90;;;;;;5023923;28;20038;-87
2022/12/01 08:13:54;;;;;;;42.95;18.60;;;4.80;99.90;;;;;;5027504;28;20409;-87
2022/12/01 08:16:21;;;;;;;42.50;16.47;;;4.80;99.90;;;;;;5018227;28;20120;-87
2022/12/01 08:18:50;;;;;;;45.33;18.08;;;4.80;99.90;;;;;;5027680;28;20476;-87
2022/12/01 08:21:19;;;;;;;46.15;16.35;;;4.80;99.90;;;;;;5031391;28;20124;-87
2022/12/01 08:23:59;;;;;;;51.33;16.42;;;4.80;99.90;;;;;;5007908;28;20037;-87
2022/12/01 08:26:31;;;;;;;48.05;16.40;;;4.70;99.90;;;;;;5047863;28;20044;-87
2022/12/01 08:29:06;;;;;;;44.53;16.73;;;4.70;99.90;;;;;;5028387;28;20067;-87
2022/12/01 08:31:51;;;;;;;40.63;15.90;;;4.70;99.90;;;;;;5019504;28;20041;-87
2022/12/01 08:34:17;;;;;;;48.10;16.77;;;4.60;99.90;;;;;;5024596;28;20034;-87
2022/12/01 08:36:42;;;;;;;40.33;15.20;;;4.80;99.90;;;;;;5009704;28;20045;-87
2022/12/01 08:39:11;;;;;;;44.65;15.57;;;4.70;99.90;;;;;;5003807;28;20640;-87
2022/12/01 08:41:37;;;;;;;40.87;16.33;;;4.80;99.90;;;;;;5025946;28;20128;-86
2022/12/01 08:44:18;;;;;;;33.33;14.50;;;4.80;99.90;;;;;;5021082;28;20123;-87
2022/12/01 08:46:43;;;;;;;32.97;13.57;;;4.80;99.90;;;;;;5017748;28;20093;-87
2022/12/01 08:49:09;;;;;;;31.73;12.37;;;4.80;99.90;;;;;;5031318;28;20049;-87
2022/12/01 08:51:35;;;;;;;36.53;12.67;;;4.80;99.90;;;;;;5032264;28;20049;-87
2022/12/01 08:54:01;;;;;;;35.27;12.63;;;4.80;99.90;;;;;;5020905;28;20099;-86
2022/12/01 08:56:44;;;;;;;29.90;12.63;;;4.90;99.90;;;;;;5015365;28;20108;-87
2022/12/01 08:59:13;;;;;;;26.05;11.38;;;4.90;99.90;;;;;;5020421;28;20052;-87
2022/12/01 09:01:51;;;;;;;27.23;11.70;;;5.00;99.90;;;;;;5027173;28;20071;-87
2022/12/01 09:04:18;;;;;;;29.08;12.20;;;5.00;99.90;;;;;;5021783;28;20149;-87
2022/12/01 09:06:48;;;;;;;26.38;11.48;;;5.00;99.90;;;;;;5016116;28;20049;-87
2022/12/01 09:09:20;;;;;;;22.25;8.85;;;5.10;99.90;;;;;;5038388;28;20621;-87
2022/12/01 09:11:47;;;;;;;28.27;10.77;;;5.10;99.90;;;;;;5024139;28;20635;-87
2022/12/01 09:14:18;;;;;;;22.50;9.88;;;5.10;99.90;;;;;;5038362;28;20029;-87
2022/12/01 09:16:54;;;;;;;24.63;9.82;;;5.20;99.90;;;;;;5031769;28;20091;-87
2022/12/01 09:19:22;;;;;;;24.95;8.95;;;5.30;99.90;;;;;;5024046;28;20137;-87
2022/12/01 09:21:48;;;;;;;21.67;10.13;;;5.30;99.90;;;;;;5025961;28;20139;-86
2022/12/01 09:24:15;;;;;;;23.37;10.10;;;5.40;99.90;;;;;;5014362;28;20037;-87
2022/12/01 09:26:41;;;;;;;26.77;9.60;;;5.40;99.90;;;;;;5008542;28;20037;-87
2022/12/01 09:29:23;;;;;;;;;;;;;;;;;;;;;
2022/12/01 09:31:49;;;;;;;25.38;9.20;;;5.50;99.90;;;;;;5026892;28;20037;-87
2022/12/01 09:34:19;;;;;;;20.13;9.60;;;5.60;99.90;;;;;;5037124;28;20107;-87
2022/12/01 09:36:48;;;;;;;25.80;8.73;;;5.70;99.90;;;;;;5038383;28;20049;-87
2022/12/01 09:39:19;;;;;;;24.27;9.40;;;5.70;99.90;;;;;;5046363;28;20041;-87
2022/12/01 09:42:01;;;;;;;22.58;9.68;;;5.80;99.90;;;;;;5039343;28;20106;-87
2022/12/01 09:44:39;;;;;;;18.02;8.63;;;5.80;99.90;;;;;;5028141;28;20425;-87
2022/12/01 09:47:33;;;;;;;23.45;9.32;;;5.90;99.90;;;;;;5028535;28;20045;-87
2022/12/01 09:50:18;;;;;;;20.38;8.43;;;6.00;99.90;;;;;;5031421;28;20076;-87
2022/12/01 09:52:50;;;;;;;21.08;8.90;;;6.10;99.90;;;;;;5046770;28;20034;-87
2022/12/01 09:55:19;;;;;;;19.60;9.20;;;6.10;99.90;;;;;;5031734;28;20107;-87
2022/12/01 09:57:52;;;;;;;18.00;8.02;;;6.20;99.90;;;;;;5014486;28;20044;-87
2022/12/01 10:00:27;;;;;;;18.08;8.50;;;6.30;99.90;;;;;;5037719;28;20037;-87
2022/12/01 10:03:08;;;;;;;20.40;9.00;;;6.40;99.90;;;;;;5026519;28;20514;-87
2022/12/01 10:05:45;;;;;;;17.40;8.55;;;6.40;99.90;;;;;;5021214;28;20484;-87
2022/12/01 10:08:23;;;;;;;16.60;7.63;;;6.50;99.90;;;;;;5008781;28;20037;-87
2022/12/01 10:10:52;;;;;;;18.27;7.72;;;6.60;99.90;;;;;;5024130;28;20076;-87
2022/12/01 10:13:26;;;;;;;19.48;8.52;;;6.70;99.90;;;;;;5033998;28;20043;-87
2022/12/01 10:16:11;;;;;;;19.75;8.27;;;6.70;99.90;;;;;;5014289;28;20418;-87
2022/12/01 10:18:55;;;;;;;19.65;7.80;;;6.80;99.90;;;;;;5019792;28;20502;-87
2022/12/01 10:21:29;;;;;;;17.83;7.45;;;6.90;99.90;;;;;;5021398;28;20049;-87
2022/12/01 10:24:23;;;;;;;17.77;7.60;;;7.00;99.90;;;;;;5013846;28;20063;-88
2022/12/01 10:27:44;;;;;;;13.93;6.65;;;7.00;99.90;;;;;;5011640;28;20506;-87
2022/12/01 10:30:16;;;;;;;14.77;7.13;;;7.20;99.90;;;;;;4999754;28;20046;-87
2022/12/01 10:33:19;;;;;;;20.45;8.50;;;7.30;99.90;;;;;;5030813;28;20096;-87
2022/12/01 10:35:48;;;;;;;21.10;7.88;;;7.30;99.90;;;;;;5015128;28;20539;-86
2022/12/01 10:39:01;;;;;;;18.45;8.18;;;7.30;99.90;;;;;;5006823;28;20045;-87
2022/12/01 10:41:31;;;;;;;16.60;7.10;;;7.30;99.90;;;;;;4989336;28;20052;-87
2022/12/01 10:44:04;;;;;;;17.42;7.10;;;7.40;99.90;;;;;;5025291;28;20042;-87
2022/12/01 10:46:42;;;;;;;16.58;8.18;;;7.40;99.90;;;;;;5026979;28;20042;-87
2022/12/01 10:49:16;;;;;;;15.88;8.00;;;7.50;99.90;;;;;;5018868;28;20037;-87
2022/12/01 10:51:53;;;;;;;14.52;7.85;;;7.60;99.90;;;;;;5026026;28;20033;-87
2022/12/01 10:54:30;;;;;;;17.95;7.60;;;7.70;99.90;;;;;;5021651;28;20041;-87
2022/12/01 10:56:57;;;;;;;15.55;7.68;;;7.70;99.90;;;;;;5030396;28;20047;-87
2022/12/01 10:59:47;;;;;;;13.73;6.97;;;7.80;99.90;;;;;;5013624;28;20041;-87
2022/12/01 11:02:18;;;;;;;17.35;7.78;;;7.90;99.90;;;;;;5018609;28;20058;-87
2022/12/01 11:04:50;;;;;;;15.50;6.68;;;7.90;99.90;;;;;;5011052;28;20033;-87
2022/12/01 11:07:40;;;;;;;16.00;7.40;;;8.00;99.90;;;;;;5026806;28;20042;-87
2022/12/01 11:10:18;;;;;;;12.98;5.78;;;8.00;99.90;;;;;;5025014;28;20437;-88
2022/12/01 11:12:54;;;;;;;14.63;6.60;;;8.10;99.90;;;;;;5038434;28;20080;-87
2022/12/01 11:15:48;;;;;;;15.15;6.32;;;8.20;99.90;;;;;;5009870;28;20088;-87
2022/12/01 11:18:36;;;;;;;15.85;6.93;;;8.20;99.90;;;;;;5025295;28;20092;-87
2022/12/01 11:21:25;;;;;;;12.15;6.50;;;8.30;99.90;;;;;;5040355;28;20049;-88
2022/12/01 11:24:01;;;;;;;15.82;7.47;;;8.30;99.90;;;;;;5012196;28;20197;-88
2022/12/01 11:26:33;;;;;;;15.60;7.63;;;8.40;99.90;;;;;;5017289;28;20048;-88
2022/12/01 11:29:05;;;;;;;15.57;6.30;;;8.40;99.90;;;;;;5046886;28;20076;-87
2022/12/01 11:31:48;;;;;;;15.52;7.15;;;8.40;99.90;;;;;;5012715;28;20044;-87
2022/12/01 11:34:25;;;;;;;11.57;6.30;;;8.60;99.90;;;;;;5039535;28;20038;-87
2022/12/01 11:37:40;;;;;;;12.50;6.03;;;8.70;99.90;;;;;;5004604;28;20080;-87
2022/12/01 11:40:12;;;;;;;13.15;6.68;;;8.70;99.90;;;;;;5026790;28;20112;-87
2022/12/01 11:42:40;;;;;;;11.40;6.43;;;8.70;99.90;;;;;;5030047;28;20059;-87
2022/12/01 11:45:30;;;;;;;13.75;6.05;;;8.70;99.90;;;;;;5021502;28;20117;-87
2022/12/01 11:48:16;;;;;;;15.93;6.78;;;8.70;99.90;;;;;;5023300;28;20038;-87
2022/12/01 11:50:52;;;;;;;14.73;6.82;;;8.70;99.90;;;;;;5025378;28;20037;-88
2022/12/01 11:53:42;;;;;;;16.83;7.13;;;8.60;99.90;;;;;;5034994;28;20116;-88
2022/12/01 11:56:31;;;;;;;14.35;6.60;;;8.60;99.90;;;;;;4962317;28;20046;-87
2022/12/01 11:59:07;;;;;;;15.60;6.75;;;8.60;99.90;;;;;;4977689;28;20122;-88
2022/12/01 12:02:00;;;;;;;14.00;6.90;;;8.60;99.90;;;;;;5033493;28;20061;-87
2022/12/01 12:04:54;;;;;;;12.40;5.80;;;8.50;99.90;;;;;;5032904;28;20061;-87
2022/12/01 12:07:41;;;;;;;12.27;6.07;;;8.50;99.90;;;;;;5016793;28;20049;-86
2022/12/01 12:10:26;;;;;;;13.73;6.30;;;8.50;99.90;;;;;;5032661;28;20084;-87
2022/12/01 12:13:26;;;;;;;12.75;5.95;;;8.40;99.90;;;;;;5041249;28;20288;-87
2022/12/01 12:16:21;;;;;;;12.40;6.43;;;8.40;99.90;;;;;;5029220;28;20073;-86
2022/12/01 12:19:27;;;;;;;14.80;6.80;;;8.40;99.90;;;;;;5037172;28;20056;-86
2022/12/01 12:22:15;;;;;;;15.25;6.85;;;8.40;99.90;;;;;;5033224;28;20041;-87
2022/12/01 12:25:26;;;;;;;13.88;6.63;;;8.50;99.90;;;;;;5020201;28;20029;-87
2022/12/01 12:28:11;;;;;;;11.60;5.72;;;8.40;99.90;;;;;;5032409;28;20095;-87
2022/12/01 12:30:56;;;;;;;13.70;6.85;;;8.40;99.90;;;;;;5027546;28;20041;-87
2022/12/01 12:33:31;;;;;;;11.65;5.82;;;8.40;99.90;;;;;;5024734;28;20509;-87
2022/12/01 12:36:11;;;;;;;11.30;6.13;;;8.30;99.90;;;;;;5042196;28;20498;-87
2022/12/01 12:38:58;;;;;;;12.05;6.13;;;8.20;99.90;;;;;;5032655;28;20136;-87
2022/12/01 12:41:39;;;;;;;12.57;7.30;;;8.20;99.90;;;;;;5051211;28;20099;-87
2022/12/01 12:44:27;;;;;;;15.43;6.55;;;8.10;99.90;;;;;;5053717;28;20076;-87
2022/12/01 12:47:12;;;;;;;11.88;6.85;;;8.10;99.90;;;;;;5054912;28;20474;-87
2022/12/01 12:50:03;;;;;;;14.45;6.55;;;8.00;99.90;;;;;;5024945;28;20034;-87
2022/12/01 12:52:42;;;;;;;12.98;6.18;;;7.90;99.90;;;;;;5028066;28;20038;-85
2022/12/01 12:55:16;;;;;;;16.63;7.43;;;7.90;99.90;;;;;;5026607;28;20037;-87
2022/12/01 12:58:01;;;;;;;15.23;7.18;;;7.90;99.90;;;;;;5017760;28;20046;-86
2022/12/01 13:00:45;;;;;;;14.30;7.28;;;7.80;99.90;;;;;;5037349;28;20092;-87
2022/12/01 13:03:44;;;;;;;14.00;7.05;;;7.80;99.90;;;;;;5031576;28;20502;-87
2022/12/01 13:06:39;;;;;;;11.70;6.05;;;7.80;99.90;;;;;;5040945;28;20048;-88
2022/12/01 13:09:14;;;;;;;15.10;6.32;;;7.90;99.90;;;;;;5040208;28;20176;-87
2022/12/01 13:11:52;;;;;;;16.58;7.50;;;7.90;99.90;;;;;;5022622;28;20620;-88
2022/12/01 13:14:28;;;;;;;15.95;7.15;;;8.00;99.90;;;;;;5019626;28;20038;-88
2022/12/01 13:17:01;;;;;;;14.90;5.67;;;8.00;99.90;;;;;;5019670;28;20542;-87
2022/12/01 13:19:31;;;;;;;13.43;6.60;;;8.00;99.90;;;;;;5012609;28;20167;-87